Galax, VA (24333)

10:53 PM EDT on August 28, 2016 (GMT -0400)
Taylorwoods Station | | Change Station

Elev 2585 ft 36.68 °N, 80.89 °W | Updated 11 seconds ago

Clear
Clear
66.2 °F
Feels Like 66.2 °F
N
0.0
Wind Variable Wind from ESE
Gusts 0.0 mph

Today
High -- | Low -- °F
--% Chance of Precip.
Yesterday
High -- | Low -- °F
Precip. -- in
Pressure 30.28 in
Visibility 10.0 miles
Clouds Clear
Dew Point 62 °F
Humidity 86%
Rainfall 0.00 in
Snow Depth Not available.
6:52 AM 7:56 PM
Waning Crescent, 11% visible
METAR KHLX 290235Z AUTO 12003KT 10SM CLR 21/17 A3028 RMK AO2 T02100167
Pressure 30.28 in
Visibility 10.0 miles
Clouds Clear
Dew Point 62 °F
Humidity 86%
Rainfall 0.00 in
Snow Depth Not available.
6:52 AM 7:56 PM
Waning Crescent, 11% visible
METAR KHLX 290235Z AUTO 12003KT 10SM CLR 21/17 A3028 RMK AO2 T02100167

10-Day Weather Forecast

Almanac

Astronomy

Aug. 28, 2016 Rise Set
Actual Time
Civil Twilight
Nautical Twilight
Astronomical Twilight
Moon
Length of Visible Light
Length of Day
Tomorrow will be .
, % of the Moon is Illuminated

Today's Extremes

State Highs State Lows

Community

WunderPhotos

Upload Photos

1,935,780 photos uploaded!

WunderBlog® & News

Nearby

Air Quality

  Air Quality AQ Index Pollutant
Not available.

Snow Depth

Station Depth Elevation

Earthquake Activity

City Distance Mag. Time & Date
Minimum magnitude displayed is 2.5.

Coastal Water Temperatures

Place Temperature

Stations

Nearby Weather Stations

Station Location Temp. Windchill Dew Point Humidity Wind Precip. Elev Updated Type
                   

Watches & Warnings

There are currently no watches in effect.